Country
Station

 

Weather  for  Aeroporto Marília (Marília/SP)  -  Brazil    Brazil

  
30 °C (86 °F)
    
 
 

Current METAR for Aeroporto Marília (Marília/SP) is :

SBML 151900Z 12012KT 9999 FEW045 30/18 Q1016

 

This is a report for Aeroporto Marília (Marília/SP) - Brazil.
 
The report was made 18 hours and 7 minutes ago, at 19:00 UTC .
The wind was blowing at a speed of 6.2 meters per second (13.8 miles per hour) from east/southeast (120°).
 
The temperature was 30 °C (86 °F), with a dew-point at 18 °C (64 °F).
The temperature felt like 31 °C (87 °F).
 
The atmospheric pressure was 1016 hPa (30.00 inHg).
The relative humidity was 48.6%.
 
There were a few clouds at a height of 1372 meters (4500 feet).
 
The overall visibility was greater than 10 kilometers (6.2 miles).
 

 
 
 
 

Country :   A   B   C   D   E   F   G   H   I   J   K   L   M   N   O   P   Q   R   S   T   U   V   W   Y   Z

 

Site Info  |  Disclaimer  |  Credits  |  Privacy
Contact us  |  Add to favorites
© 2013-2019 METARs - All rights reserved